createdAt,value
2023-05-15T00:00:32.484Z,9.54
2023-05-15T00:01:29.186Z,9.69
2023-05-15T00:02:25.767Z,9.63
2023-05-15T00:03:22.504Z,9.75
2023-05-15T00:04:19.163Z,9.57
2023-05-15T00:05:16.188Z,9.63
2023-05-15T00:06:12.788Z,9.69
2023-05-15T00:07:09.296Z,9.65
2023-05-15T00:08:06.273Z,9.73
2023-05-15T00:09:02.797Z,9.64
2023-05-15T00:09:59.443Z,9.55
2023-05-15T00:11:01.513Z,9.72
2023-05-15T00:11:58.648Z,9.76
2023-05-15T00:12:55.350Z,9.59
2023-05-15T00:13:52.305Z,9.61
2023-05-15T00:14:48.803Z,9.93
2023-05-15T00:15:45.339Z,9.76
2023-05-15T00:16:42.080Z,9.81
2023-05-15T00:17:38.674Z,9.69
2023-05-15T00:18:35.544Z,9.83
2023-05-15T00:19:32.048Z,9.73
2023-05-15T00:20:28.578Z,9.70
2023-05-15T00:21:25.046Z,9.68
2023-05-15T00:22:21.536Z,9.72
2023-05-15T00:23:18.078Z,9.62
2023-05-15T00:24:14.757Z,9.81
2023-05-15T00:25:11.451Z,9.75
2023-05-15T00:26:08.013Z,9.96
2023-05-15T00:27:04.589Z,9.87
2023-05-15T00:28:01.049Z,10.18
2023-05-15T00:28:57.809Z,10.17
2023-05-15T00:29:54.359Z,10.09
2023-05-15T00:30:51.930Z,9.74
2023-05-15T00:31:48.422Z,9.70
2023-05-15T00:32:44.912Z,9.76
2023-05-15T00:33:41.487Z,9.82
2023-05-15T00:34:37.972Z,10.03
2023-05-15T00:35:34.499Z,9.99
2023-05-15T00:36:31.024Z,9.53
2023-05-15T00:37:27.504Z,10.04
2023-05-15T00:38:23.954Z,10.05
2023-05-15T00:39:20.508Z,9.88
2023-05-15T00:40:20.625Z,9.71
2023-05-15T00:41:18.126Z,9.70
2023-05-15T00:42:15.458Z,9.72
2023-05-15T00:43:12.377Z,9.53
2023-05-15T00:44:09.911Z,9.65
2023-05-15T00:45:08.689Z,9.62
2023-05-15T00:46:06.636Z,9.62
2023-05-15T00:47:04.026Z,9.70
2023-05-15T00:48:01.425Z,9.77
2023-05-15T00:48:58.239Z,9.53
2023-05-15T00:49:55.697Z,9.58
2023-05-15T00:50:52.375Z,9.71
2023-05-15T00:51:49.185Z,9.69
2023-05-15T00:52:46.035Z,9.65
2023-05-15T00:53:42.825Z,9.67
2023-05-15T00:54:39.442Z,9.64
2023-05-15T00:55:36.589Z,9.46
2023-05-15T00:56:33.881Z,9.70
2023-05-15T00:57:31.265Z,9.62
2023-05-15T00:58:29.415Z,9.80
2023-05-15T00:59:30.144Z,9.79
2023-05-15T01:00:27.319Z,9.77
2023-05-15T01:01:25.758Z,9.58
2023-05-15T01:02:22.514Z,9.44
2023-05-15T01:03:19.176Z,9.72
2023-05-15T01:04:15.713Z,9.70
2023-05-15T01:05:12.214Z,9.86
2023-05-15T01:06:08.706Z,9.81
2023-05-15T01:07:05.202Z,9.72
2023-05-15T01:08:07.900Z,9.47
2023-05-15T01:09:05.794Z,9.43
2023-05-15T01:10:04.376Z,9.54
2023-05-15T01:11:02.889Z,9.64
2023-05-15T01:12:00.765Z,9.45
2023-05-15T01:12:57.479Z,9.64
2023-05-15T01:13:53.999Z,9.80
2023-05-15T01:14:50.711Z,9.83
2023-05-15T01:15:47.310Z,9.60
2023-05-15T01:16:43.799Z,9.07
2023-05-15T01:17:40.744Z,9.81
2023-05-15T01:18:37.389Z,9.79
2023-05-15T01:19:34.385Z,9.57
2023-05-15T01:20:34.327Z,9.75
2023-05-15T01:21:37.540Z,9.73
2023-05-15T01:22:41.132Z,9.86
2023-05-15T01:23:56.472Z,9.74
2023-05-15T01:25:11.352Z,9.79
2023-05-15T01:26:17.811Z,9.96
2023-05-15T01:27:14.339Z,10.01
2023-05-15T01:28:12.368Z,10.18
2023-05-15T01:29:13.006Z,9.97
2023-05-15T01:30:15.986Z,9.90
2023-05-15T01:31:16.649Z,9.67
2023-05-15T01:32:18.486Z,9.76
2023-05-15T01:33:18.928Z,9.75
2023-05-15T01:34:18.930Z,9.65
2023-05-15T01:35:25.005Z,9.41
2023-05-15T01:36:27.163Z,9.48
2023-05-15T01:37:25.062Z,9.74
2023-05-15T01:38:21.500Z,9.87
2023-05-15T01:39:20.331Z,10.04
2023-05-15T01:40:18.721Z,10.14
2023-05-15T01:41:21.316Z,10.02
2023-05-15T01:42:19.509Z,10.07
2023-05-15T01:43:18.752Z,9.67
2023-05-15T01:44:17.345Z,9.67
2023-05-15T01:45:14.196Z,9.61
2023-05-15T01:46:13.520Z,9.44
2023-05-15T01:47:15.029Z,9.45
2023-05-15T01:48:13.735Z,9.59
2023-05-15T01:49:12.298Z,9.52
2023-05-15T01:50:10.204Z,9.35
2023-05-15T01:51:07.871Z,9.42
2023-05-15T01:52:10.810Z,9.47
2023-05-15T01:53:09.273Z,9.53
2023-05-15T01:54:06.978Z,9.94
2023-05-15T01:55:04.413Z,9.98
2023-05-15T01:56:02.486Z,9.73
2023-05-15T01:56:59.022Z,9.76
2023-05-15T01:57:56.609Z,10.00
2023-05-15T01:58:53.800Z,10.00
2023-05-15T01:59:50.942Z,9.93
2023-05-15T02:00:48.058Z,10.07
2023-05-15T02:01:45.250Z,9.98
2023-05-15T02:02:42.330Z,9.46
2023-05-15T02:03:40.360Z,9.80
2023-05-15T02:04:38.089Z,9.67
2023-05-15T02:05:35.019Z,9.56
2023-05-15T02:06:32.037Z,9.60
2023-05-15T02:07:29.075Z,9.51
2023-05-15T02:08:28.887Z,9.39
2023-05-15T02:09:26.209Z,9.40
2023-05-15T02:10:23.086Z,9.48
2023-05-15T02:11:19.969Z,9.39
2023-05-15T02:12:17.034Z,9.35
2023-05-15T02:13:13.750Z,9.29
2023-05-15T02:14:11.180Z,9.34
2023-05-15T02:15:09.198Z,9.32
2023-05-15T02:16:06.028Z,9.27
2023-05-15T02:17:02.595Z,9.27
2023-05-15T02:17:59.109Z,9.29
2023-05-15T02:18:55.683Z,9.23
2023-05-15T02:19:52.240Z,9.34
2023-05-15T02:20:48.824Z,9.32
2023-05-15T02:21:45.290Z,9.26
2023-05-15T02:22:41.772Z,9.19
2023-05-15T02:23:39.249Z,9.17
2023-05-15T02:24:35.750Z,9.21
2023-05-15T02:25:38.576Z,9.24
2023-05-15T02:26:56.971Z,9.23
2023-05-15T02:28:00.367Z,9.17
2023-05-15T02:29:02.795Z,9.30
2023-05-15T02:30:02.353Z,9.37
2023-05-15T02:31:01.369Z,9.58
2023-05-15T02:31:57.889Z,9.51
2023-05-15T02:32:58.793Z,9.63
2023-05-15T02:34:15.520Z,9.42
2023-05-15T02:35:33.230Z,9.47
2023-05-15T02:36:32.417Z,9.50
2023-05-15T02:37:31.194Z,9.42
2023-05-15T02:38:33.255Z,9.33
2023-05-15T02:39:30.173Z,9.39
2023-05-15T02:40:28.622Z,9.55
2023-05-15T02:41:25.532Z,9.75
2023-05-15T02:42:22.735Z,9.48
2023-05-15T02:43:20.052Z,9.72
2023-05-15T02:44:17.752Z,9.65
2023-05-15T02:45:14.910Z,9.80
2023-05-15T02:46:12.474Z,9.74
2023-05-15T02:47:11.308Z,9.63
2023-05-15T02:48:09.124Z,9.71
2023-05-15T02:49:05.980Z,9.75
2023-05-15T02:50:02.936Z,9.57
2023-05-15T02:50:59.408Z,9.62
2023-05-15T02:51:55.888Z,9.69
2023-05-15T02:53:01.245Z,9.57
2023-05-15T02:53:59.819Z,9.65
2023-05-15T02:54:56.318Z,9.42
2023-05-15T02:55:52.884Z,9.29
2023-05-15T02:56:49.328Z,9.36
2023-05-15T02:57:45.948Z,9.35
2023-05-15T02:58:42.598Z,9.69
2023-05-15T02:59:39.194Z,9.71
2023-05-15T03:00:35.800Z,9.66
2023-05-15T03:01:32.502Z,9.93
2023-05-15T03:02:29.001Z,9.99
2023-05-15T03:03:25.519Z,9.94
2023-05-15T03:04:22.139Z,9.47
2023-05-15T03:05:18.714Z,9.49
2023-05-15T03:06:15.282Z,9.58
2023-05-15T03:07:11.824Z,9.63
2023-05-15T03:08:08.321Z,9.63
2023-05-15T03:09:04.864Z,9.63
2023-05-15T03:10:01.338Z,9.51
2023-05-15T03:10:58.405Z,9.59
2023-05-15T03:11:54.889Z,9.62
2023-05-15T03:12:51.452Z,9.68
2023-05-15T03:13:48.033Z,9.68
2023-05-15T03:14:44.514Z,9.83
2023-05-15T03:15:40.983Z,9.77
2023-05-15T03:16:39.007Z,9.58
2023-05-15T03:17:35.684Z,9.56
2023-05-15T03:18:32.218Z,9.40
2023-05-15T03:19:28.696Z,9.41
2023-05-15T03:20:25.303Z,9.65
2023-05-15T03:21:21.900Z,9.70
2023-05-15T03:22:18.610Z,9.76
2023-05-15T03:23:15.113Z,9.74
2023-05-15T03:24:11.901Z,9.72
2023-05-15T03:25:11.604Z,9.61
2023-05-15T03:26:08.121Z,9.53
2023-05-15T03:27:05.236Z,9.61
2023-05-15T03:28:01.713Z,9.56
2023-05-15T03:28:58.288Z,9.53
2023-05-15T03:29:54.770Z,9.53
2023-05-15T03:30:51.254Z,9.61
2023-05-15T03:31:47.764Z,9.74
2023-05-15T03:32:44.284Z,9.68
2023-05-15T03:33:40.894Z,9.89
2023-05-15T03:34:38.369Z,9.94
2023-05-15T03:35:36.236Z,9.89
2023-05-15T03:36:32.722Z,9.99
2023-05-15T03:37:29.218Z,10.07
2023-05-15T03:38:25.837Z,10.19
2023-05-15T03:39:22.261Z,10.14
2023-05-15T03:40:18.761Z,10.18
2023-05-15T03:41:15.307Z,10.03
2023-05-15T03:42:11.792Z,10.06
2023-05-15T03:43:08.215Z,10.11
2023-05-15T03:44:04.777Z,9.79
2023-05-15T03:45:01.346Z,10.28
2023-05-15T03:45:59.056Z,10.21
2023-05-15T03:46:55.598Z,10.10
2023-05-15T03:47:52.135Z,10.01
2023-05-15T03:48:48.693Z,9.33
2023-05-15T03:49:46.176Z,9.64
2023-05-15T03:50:44.450Z,9.57
2023-05-15T03:51:40.946Z,9.61
2023-05-15T03:52:38.524Z,9.46
2023-05-15T03:53:36.620Z,9.62
2023-05-15T03:54:33.370Z,9.74
2023-05-15T03:55:29.893Z,9.67
2023-05-15T03:56:26.468Z,9.83
2023-05-15T03:57:22.971Z,9.93
2023-05-15T03:58:19.405Z,9.99
2023-05-15T03:59:15.840Z,9.95
2023-05-15T04:00:12.806Z,10.21
2023-05-15T04:01:09.350Z,9.98
2023-05-15T04:02:05.931Z,10.22
2023-05-15T04:03:02.831Z,10.15
2023-05-15T04:03:59.495Z,10.25
2023-05-15T04:04:56.026Z,10.03
2023-05-15T04:05:52.528Z,10.17
2023-05-15T04:06:49.951Z,10.26
2023-05-15T04:07:46.461Z,10.29
2023-05-15T04:08:42.952Z,10.46
2023-05-15T04:09:39.447Z,10.52
2023-05-15T04:10:35.937Z,10.51
2023-05-15T04:11:34.794Z,9.95
2023-05-15T04:12:32.593Z,10.29
2023-05-15T04:13:29.223Z,10.13
2023-05-15T04:14:25.764Z,10.08
2023-05-15T04:15:23.832Z,10.15
2023-05-15T04:16:20.638Z,10.07
2023-05-15T04:17:17.094Z,10.09
2023-05-15T04:18:13.536Z,10.26
2023-05-15T04:19:10.036Z,10.34
2023-05-15T04:20:07.393Z,10.29
2023-05-15T04:21:03.957Z,10.34
2023-05-15T04:22:00.476Z,10.19
2023-05-15T04:22:57.005Z,10.37
2023-05-15T04:23:53.500Z,10.60
2023-05-15T04:24:49.993Z,10.51
2023-05-15T04:25:46.900Z,10.41
2023-05-15T04:26:43.436Z,10.16
2023-05-15T04:27:40.508Z,10.38
2023-05-15T04:28:37.089Z,10.42
2023-05-15T04:29:33.612Z,10.36
2023-05-15T04:30:30.125Z,10.41
2023-05-15T04:31:27.723Z,10.65
2023-05-15T04:32:24.242Z,10.75
2023-05-15T04:33:20.952Z,10.51
2023-05-15T04:34:17.430Z,10.69
2023-05-15T04:35:15.471Z,10.54
2023-05-15T04:36:12.024Z,10.52
2023-05-15T04:37:08.518Z,10.61
2023-05-15T04:38:04.955Z,10.44
2023-05-15T04:39:01.542Z,10.60
2023-05-15T04:39:58.007Z,10.49
2023-05-15T04:40:54.583Z,10.49
2023-05-15T04:41:51.243Z,10.47
2023-05-15T04:42:47.791Z,10.61
2023-05-15T04:43:44.285Z,10.80
2023-05-15T04:44:41.047Z,10.91
2023-05-15T04:45:37.792Z,10.78
2023-05-15T04:46:35.057Z,10.65
2023-05-15T04:47:31.599Z,10.46
2023-05-15T04:48:28.084Z,10.40
2023-05-15T04:49:24.585Z,10.42
2023-05-15T04:50:21.107Z,10.41
2023-05-15T04:51:17.566Z,10.41
2023-05-15T04:52:14.154Z,10.37
2023-05-15T04:53:10.635Z,10.63
2023-05-15T04:54:07.272Z,10.56
2023-05-15T04:55:03.944Z,10.54
2023-05-15T04:56:00.673Z,10.80
2023-05-15T04:56:57.950Z,10.63
2023-05-15T04:57:54.493Z,10.55
2023-05-15T04:58:50.958Z,10.49
2023-05-15T04:59:47.453Z,10.43
2023-05-15T05:00:44.100Z,10.17
2023-05-15T05:01:40.718Z,10.35
2023-05-15T05:02:37.536Z,10.42
2023-05-15T05:03:34.080Z,10.45
2023-05-15T05:04:30.749Z,10.45
2023-05-15T05:05:27.480Z,10.53
2023-05-15T05:06:24.170Z,10.56
2023-05-15T05:07:20.751Z,10.49
2023-05-15T05:08:17.249Z,10.41
2023-05-15T05:09:13.842Z,10.46
2023-05-15T05:10:10.558Z,10.64
2023-05-15T05:11:07.084Z,10.52
2023-05-15T05:12:03.701Z,10.59
2023-05-15T05:13:00.193Z,10.79
2023-05-15T05:13:56.707Z,11.10
2023-05-15T05:14:53.277Z,10.90
2023-05-15T05:15:49.872Z,10.55
2023-05-15T05:16:46.471Z,10.35
2023-05-15T05:17:42.993Z,10.66
2023-05-15T05:18:39.512Z,10.74
2023-05-15T05:19:36.020Z,10.45
2023-05-15T05:20:32.529Z,10.82
2023-05-15T05:21:29.010Z,10.82
2023-05-15T05:22:25.543Z,10.86
2023-05-15T05:23:21.990Z,10.76
2023-05-15T05:24:18.538Z,10.67
2023-05-15T05:25:15.050Z,10.66
2023-05-15T05:26:11.528Z,10.74
2023-05-15T05:27:08.073Z,10.89
2023-05-15T05:28:04.673Z,10.60
2023-05-15T05:29:01.124Z,10.45
2023-05-15T05:29:57.713Z,10.48
2023-05-15T05:30:54.263Z,10.65
2023-05-15T05:31:51.392Z,10.43
2023-05-15T05:32:48.043Z,10.67
2023-05-15T05:33:44.591Z,10.91
2023-05-15T05:34:41.236Z,10.83
2023-05-15T05:35:37.823Z,10.93
2023-05-15T05:36:34.315Z,11.20
2023-05-15T05:37:30.819Z,11.31
2023-05-15T05:38:27.775Z,11.23
2023-05-15T05:39:24.236Z,11.14
2023-05-15T05:40:20.730Z,11.04
2023-05-15T05:41:17.238Z,11.09
2023-05-15T05:42:13.715Z,11.10
2023-05-15T05:43:10.272Z,11.17
2023-05-15T05:44:06.875Z,11.23
2023-05-15T05:45:03.451Z,11.29
2023-05-15T05:46:00.037Z,10.97
2023-05-15T05:46:56.520Z,11.31
2023-05-15T05:47:53.091Z,11.25
2023-05-15T05:48:49.546Z,11.21
2023-05-15T05:49:48.182Z,11.32
2023-05-15T05:50:44.802Z,11.42
2023-05-15T05:51:41.262Z,11.49
2023-05-15T05:52:37.898Z,11.41
2023-05-15T05:53:34.504Z,11.28
2023-05-15T05:54:31.062Z,11.37
2023-05-15T05:55:27.759Z,11.38
2023-05-15T05:56:24.457Z,11.36
2023-05-15T05:57:21.028Z,11.47
2023-05-15T05:59:20.853Z,11.79
2023-05-15T06:00:17.628Z,11.51
2023-05-15T06:01:14.196Z,11.91
2023-05-15T06:02:11.494Z,11.93
2023-05-15T06:03:08.199Z,11.87
2023-05-15T06:04:04.975Z,12.11
2023-05-15T06:05:01.903Z,11.84
2023-05-15T06:05:58.503Z,12.15
2023-05-15T06:06:54.962Z,12.14
2023-05-15T06:07:52.466Z,12.43
2023-05-15T06:08:48.931Z,12.65
2023-05-15T06:09:46.967Z,12.93
2023-05-15T06:10:43.512Z,12.62
2023-05-15T06:11:40.456Z,12.44
2023-05-15T06:12:37.002Z,12.46
2023-05-15T06:13:33.476Z,12.35
2023-05-15T06:14:30.015Z,12.60
2023-05-15T06:15:27.039Z,13.08
2023-05-15T06:16:23.592Z,13.37
2023-05-15T06:17:20.076Z,13.50
2023-05-15T06:18:16.621Z,13.55
2023-05-15T06:19:13.188Z,13.36
2023-05-15T06:20:09.962Z,12.85
2023-05-15T06:21:06.456Z,12.59
2023-05-15T06:22:03.012Z,12.87
2023-05-15T06:22:59.565Z,13.15
2023-05-15T06:23:56.072Z,13.08
2023-05-15T06:24:52.515Z,13.43
2023-05-15T06:25:49.060Z,13.97
2023-05-15T06:26:45.610Z,13.68
2023-05-15T06:27:42.409Z,13.19
2023-05-15T06:28:38.911Z,13.17
2023-05-15T06:29:35.872Z,13.53
2023-05-15T06:30:32.372Z,13.65
2023-05-15T06:31:29.041Z,13.87
2023-05-15T06:32:25.826Z,13.80
2023-05-15T06:33:22.303Z,13.78
2023-05-15T06:34:18.801Z,13.21
2023-05-15T06:35:15.501Z,13.44
2023-05-15T06:36:12.273Z,13.67
2023-05-15T06:37:08.799Z,13.67
2023-05-15T06:38:05.483Z,13.65
2023-05-15T06:39:01.932Z,13.72
2023-05-15T06:39:58.482Z,13.32
2023-05-15T06:40:54.930Z,12.98
2023-05-15T06:41:54.085Z,12.70
2023-05-15T06:42:50.709Z,12.83
2023-05-15T06:43:47.180Z,13.18
2023-05-15T06:44:43.663Z,13.37
2023-05-15T06:45:40.115Z,13.40
2023-05-15T06:46:36.653Z,13.70
2023-05-15T06:47:33.307Z,13.95
2023-05-15T06:48:29.793Z,13.77
2023-05-15T06:49:26.817Z,13.55
2023-05-15T06:50:23.326Z,13.43
2023-05-15T06:51:19.820Z,13.41
2023-05-15T06:52:16.428Z,13.63
2023-05-15T06:53:14.511Z,13.52
2023-05-15T06:54:11.201Z,13.41
2023-05-15T06:55:08.046Z,13.51
2023-05-15T06:56:04.735Z,13.60
2023-05-15T06:57:01.201Z,13.84
2023-05-15T06:57:57.731Z,13.55
2023-05-15T06:58:54.422Z,13.81
2023-05-15T06:59:50.898Z,14.23
2023-05-15T07:00:48.577Z,14.04
2023-05-15T07:01:45.393Z,13.97
2023-05-15T07:02:41.958Z,13.66
2023-05-15T07:03:38.535Z,13.95
2023-05-15T07:04:35.174Z,13.80
2023-05-15T07:05:31.646Z,13.57
2023-05-15T07:06:28.419Z,13.55
2023-05-15T07:07:24.884Z,13.82
2023-05-15T07:08:21.455Z,13.77
2023-05-15T07:09:18.007Z,14.21
2023-05-15T07:10:14.468Z,13.80
2023-05-15T07:11:10.967Z,13.41
2023-05-15T07:12:07.643Z,13.37
2023-05-15T07:13:04.156Z,13.73
2023-05-15T07:14:00.669Z,14.18
2023-05-15T07:14:57.199Z,14.00
2023-05-15T07:15:53.653Z,13.94
2023-05-15T07:16:50.138Z,13.80
2023-05-15T07:17:46.675Z,13.47
2023-05-15T07:18:43.453Z,14.08
2023-05-15T07:19:39.950Z,13.86
2023-05-15T07:20:36.586Z,14.27
2023-05-15T07:21:33.250Z,14.08
2023-05-15T07:22:29.717Z,14.25
2023-05-15T07:23:26.529Z,13.49
2023-05-15T07:24:25.509Z,12.92
2023-05-15T07:25:22.329Z,12.91
2023-05-15T07:26:31.081Z,12.97
2023-05-15T07:27:31.136Z,13.06
2023-05-15T07:28:27.670Z,12.49
2023-05-15T07:29:24.390Z,12.33
2023-05-15T07:30:20.983Z,12.26
2023-05-15T07:31:17.538Z,12.48
2023-05-15T07:32:14.016Z,12.63
2023-05-15T07:33:10.935Z,12.66
2023-05-15T07:34:07.407Z,12.57
2023-05-15T07:35:05.040Z,12.90
2023-05-15T07:36:01.479Z,12.85
2023-05-15T07:36:57.979Z,13.04
2023-05-15T07:37:54.562Z,12.33
2023-05-15T07:38:51.083Z,12.51
2023-05-15T07:39:47.629Z,12.56
2023-05-15T07:40:44.135Z,12.55
2023-05-15T07:41:40.639Z,12.65
2023-05-15T07:42:37.114Z,13.19
2023-05-15T07:43:33.733Z,13.55
2023-05-15T07:44:30.206Z,13.76
2023-05-15T07:45:27.157Z,13.20
2023-05-15T07:46:24.045Z,13.00
2023-05-15T07:47:20.728Z,13.04
2023-05-15T07:48:17.773Z,12.77
2023-05-15T07:49:14.298Z,12.87
2023-05-15T07:50:10.959Z,12.59
2023-05-15T07:51:07.465Z,12.65
2023-05-15T07:52:04.009Z,12.59
2023-05-15T07:53:00.489Z,12.81
2023-05-15T07:53:57.011Z,13.26
2023-05-15T07:54:53.466Z,13.46
2023-05-15T07:55:50.120Z,13.51
2023-05-15T07:56:46.588Z,13.44
2023-05-15T07:57:43.062Z,13.31
2023-05-15T07:58:40.351Z,13.36
2023-05-15T07:59:36.982Z,13.07
2023-05-15T08:00:33.714Z,12.95
2023-05-15T08:01:31.408Z,13.49
2023-05-15T08:02:29.295Z,13.67
2023-05-15T08:03:26.094Z,13.09
2023-05-15T08:04:22.748Z,13.17
2023-05-15T08:05:19.208Z,12.76
2023-05-15T08:06:16.299Z,13.11
2023-05-15T08:07:13.555Z,13.35
2023-05-15T08:08:10.045Z,12.93
2023-05-15T08:09:06.563Z,13.28
2023-05-15T08:10:06.131Z,13.11
2023-05-15T08:11:02.859Z,12.98
2023-05-15T08:12:15.234Z,12.90
2023-05-15T08:13:11.700Z,12.86
2023-05-15T08:14:08.217Z,12.58
2023-05-15T08:15:05.013Z,12.61
2023-05-15T08:16:01.640Z,12.92
2023-05-15T08:16:58.186Z,13.28
2023-05-15T08:17:54.814Z,13.37
2023-05-15T08:18:53.646Z,13.38
2023-05-15T08:19:50.420Z,13.58
2023-05-15T08:20:47.723Z,13.25
2023-05-15T08:21:44.331Z,13.43
2023-05-15T08:22:40.942Z,13.65
2023-05-15T08:23:37.392Z,12.85
2023-05-15T08:24:34.155Z,12.66
2023-05-15T08:25:30.740Z,12.42
2023-05-15T08:26:27.198Z,12.54
2023-05-15T08:27:23.691Z,12.26
2023-05-15T08:28:20.168Z,12.42
2023-05-15T08:29:17.037Z,12.41
2023-05-15T08:30:13.818Z,12.42
2023-05-15T08:31:10.295Z,12.45
2023-05-15T08:32:07.767Z,12.54
2023-05-15T08:33:04.451Z,12.49
2023-05-15T08:34:00.992Z,12.45
2023-05-15T08:34:58.162Z,12.65
2023-05-15T08:35:54.742Z,12.78
2023-05-15T08:36:52.386Z,12.65
2023-05-15T08:37:48.842Z,12.61
2023-05-15T08:38:45.483Z,12.76
2023-05-15T08:39:41.990Z,12.84
2023-05-15T08:40:40.145Z,12.44
2023-05-15T08:41:47.780Z,12.58
2023-05-15T08:42:45.830Z,12.68
2023-05-15T08:43:42.903Z,12.60
2023-05-15T08:44:40.419Z,12.49
2023-05-15T08:45:37.017Z,12.25
2023-05-15T08:46:34.959Z,12.22
2023-05-15T08:47:34.709Z,12.06
2023-05-15T08:48:32.466Z,12.37
2023-05-15T08:49:47.191Z,12.49
2023-05-15T08:50:44.301Z,12.06
2023-05-15T08:51:40.988Z,12.28
2023-05-15T08:52:38.265Z,12.39
2023-05-15T08:53:34.811Z,12.24
2023-05-15T08:54:31.523Z,12.48
2023-05-15T08:55:29.016Z,12.94
2023-05-15T08:56:25.875Z,13.06
2023-05-15T08:57:22.631Z,12.99
2023-05-15T08:58:21.476Z,12.95
2023-05-15T08:59:18.366Z,13.04
2023-05-15T09:00:15.196Z,12.84
2023-05-15T09:01:13.183Z,12.98
2023-05-15T09:02:09.774Z,13.04
2023-05-15T09:03:06.870Z,12.96
2023-05-15T09:04:04.058Z,12.81
2023-05-15T09:05:00.772Z,12.80
2023-05-15T09:05:58.542Z,12.69
2023-05-15T09:06:55.565Z,12.60
2023-05-15T09:07:54.216Z,12.73
2023-05-15T09:08:52.633Z,12.97
2023-05-15T09:09:49.685Z,13.10
2023-05-15T09:10:46.546Z,13.07
2023-05-15T09:11:44.369Z,13.12
2023-05-15T09:12:43.206Z,13.18
2023-05-15T09:13:39.761Z,12.96
2023-05-15T09:14:36.238Z,12.76
2023-05-15T09:15:32.869Z,12.93
2023-05-15T09:16:29.435Z,13.13
2023-05-15T09:17:25.925Z,13.14
2023-05-15T09:18:22.742Z,13.52
2023-05-15T09:19:21.258Z,13.32
2023-05-15T09:20:28.443Z,13.32
2023-05-15T09:21:29.179Z,13.29
2023-05-15T09:22:26.086Z,13.28
2023-05-15T09:23:26.574Z,13.38
2023-05-15T09:24:24.952Z,13.48
2023-05-15T09:25:38.347Z,13.49
2023-05-15T09:26:34.956Z,13.73
2023-05-15T09:27:40.686Z,13.67
2023-05-15T09:28:37.177Z,13.94
2023-05-15T09:29:34.760Z,13.51
2023-05-15T09:30:31.302Z,14.36
2023-05-15T09:31:27.841Z,14.23
2023-05-15T09:32:27.252Z,14.27
2023-05-15T09:33:27.573Z,14.35
2023-05-15T09:34:31.379Z,13.91
2023-05-15T09:35:28.816Z,14.50
2023-05-15T09:36:25.520Z,14.96
2023-05-15T09:37:30.043Z,14.89
2023-05-15T09:38:26.561Z,14.97
2023-05-15T09:39:28.876Z,15.26
2023-05-15T09:40:28.224Z,15.15
2023-05-15T09:41:26.130Z,15.10
2023-05-15T09:42:24.592Z,14.59
2023-05-15T09:43:21.096Z,14.62
2023-05-15T09:44:21.721Z,14.63
2023-05-15T09:45:18.798Z,14.72
2023-05-15T09:46:17.181Z,14.59
2023-05-15T09:47:14.407Z,14.43
2023-05-15T09:48:12.213Z,14.81
2023-05-15T09:49:09.324Z,14.87
2023-05-15T09:50:06.175Z,14.88
2023-05-15T09:51:02.986Z,15.27
2023-05-15T09:51:59.894Z,15.06
2023-05-15T09:52:58.838Z,15.11
2023-05-15T09:53:55.429Z,15.40
2023-05-15T09:54:52.025Z,15.50
2023-05-15T09:55:49.377Z,15.66
2023-05-15T09:56:46.919Z,15.63
2023-05-15T09:57:43.377Z,15.54
2023-05-15T09:58:51.676Z,15.47
2023-05-15T09:59:48.735Z,15.70
2023-05-15T10:00:47.531Z,15.81
2023-05-15T10:01:46.369Z,15.66
2023-05-15T10:02:43.074Z,15.46
2023-05-15T10:03:42.326Z,15.17
2023-05-15T10:04:38.813Z,14.89
2023-05-15T10:06:43.178Z,14.56
2023-05-15T10:07:40.288Z,14.91
2023-05-15T10:08:37.367Z,14.99
2023-05-15T10:09:33.912Z,15.20
2023-05-15T10:10:30.848Z,14.91
2023-05-15T10:11:27.474Z,14.72
2023-05-15T10:12:24.270Z,14.73
2023-05-15T10:13:21.162Z,14.94
2023-05-15T10:14:18.784Z,14.78
2023-05-15T10:15:15.739Z,14.87
2023-05-15T10:16:13.750Z,15.40
2023-05-15T10:17:10.490Z,14.98
2023-05-15T10:18:07.849Z,14.67
2023-05-15T10:19:05.528Z,14.85
2023-05-15T10:20:02.365Z,14.98
2023-05-15T10:21:01.372Z,15.37
2023-05-15T10:21:59.642Z,15.42
2023-05-15T10:22:56.677Z,15.05
2023-05-15T10:23:54.843Z,14.82
2023-05-15T10:25:02.768Z,14.79
2023-05-15T10:26:03.256Z,14.70
2023-05-15T10:26:59.831Z,14.51
2023-05-15T10:27:57.143Z,14.79
2023-05-15T10:28:54.996Z,14.42
2023-05-15T10:29:51.633Z,14.85
2023-05-15T10:30:48.343Z,14.91
2023-05-15T10:31:44.907Z,14.53
2023-05-15T10:32:42.268Z,14.60
2023-05-15T10:33:39.089Z,14.44
2023-05-15T10:34:35.766Z,14.19
2023-05-15T10:35:33.123Z,13.91
2023-05-15T10:36:29.900Z,13.80
2023-05-15T10:37:27.999Z,14.04
2023-05-15T10:38:26.113Z,14.03
2023-05-15T10:39:24.450Z,14.00
2023-05-15T10:40:21.503Z,14.22
2023-05-15T10:41:18.283Z,14.30
2023-05-15T10:42:15.152Z,14.18
2023-05-15T10:43:13.399Z,14.51
2023-05-15T10:44:10.020Z,14.68
2023-05-15T10:45:08.920Z,14.69
2023-05-15T10:46:05.878Z,14.17
2023-05-15T10:47:03.478Z,14.13
2023-05-15T10:48:01.402Z,14.06
2023-05-15T10:48:58.867Z,13.67
2023-05-15T10:49:55.531Z,13.91
2023-05-15T10:50:52.299Z,14.13
2023-05-15T10:51:49.526Z,13.63
2023-05-15T10:52:45.995Z,13.62
2023-05-15T10:53:43.079Z,13.68
2023-05-15T10:54:39.631Z,13.56
2023-05-15T10:55:36.751Z,13.69
2023-05-15T10:56:33.677Z,13.81
2023-05-15T10:57:30.324Z,13.98
2023-05-15T10:58:26.864Z,13.88
2023-05-15T10:59:30.683Z,13.99
2023-05-15T11:00:28.999Z,14.05
2023-05-15T11:01:27.578Z,14.20
2023-05-15T11:02:25.999Z,14.21
2023-05-15T11:03:48.792Z,14.41
2023-05-15T11:04:46.715Z,14.23
2023-05-15T11:06:01.963Z,14.15
2023-05-15T11:07:11.535Z,14.27
2023-05-15T11:08:19.490Z,14.18
2023-05-15T11:09:27.490Z,14.27
2023-05-15T11:10:27.618Z,14.48
2023-05-15T11:11:54.742Z,14.39
2023-05-15T11:12:58.459Z,14.53
2023-05-15T11:14:08.089Z,14.57
2023-05-15T11:15:04.525Z,14.35
2023-05-15T11:16:01.045Z,14.10
2023-05-15T11:16:58.110Z,14.37
2023-05-15T11:18:07.657Z,14.43
2023-05-15T11:19:23.526Z,14.63
2023-05-15T11:20:20.193Z,14.44
2023-05-15T11:21:16.738Z,14.35
2023-05-15T11:22:26.318Z,14.65
2023-05-15T11:23:25.918Z,14.32
2023-05-15T11:24:26.779Z,14.68
2023-05-15T11:25:28.683Z,14.50
2023-05-15T11:26:34.402Z,14.31
2023-05-15T11:27:30.888Z,14.38
2023-05-15T11:28:29.990Z,14.38
2023-05-15T11:29:27.971Z,14.70
2023-05-15T11:30:34.781Z,14.59
2023-05-15T11:31:31.355Z,14.44
2023-05-15T11:32:46.870Z,14.41
2023-05-15T11:33:43.494Z,14.48
2023-05-15T11:34:41.781Z,14.77
2023-05-15T11:35:43.171Z,14.94
2023-05-15T11:36:40.018Z,15.07
2023-05-15T11:37:46.749Z,14.78
2023-05-15T11:38:43.538Z,14.72
2023-05-15T11:39:41.030Z,14.97
2023-05-15T11:40:45.029Z,14.88
2023-05-15T11:41:41.534Z,14.86
2023-05-15T11:42:38.097Z,14.84
2023-05-15T11:43:37.267Z,14.84
2023-05-15T11:44:33.774Z,14.56
2023-05-15T11:45:31.557Z,14.52
2023-05-15T11:46:28.502Z,14.53
2023-05-15T11:47:25.364Z,14.56
2023-05-15T11:48:23.156Z,14.63
2023-05-15T11:49:19.910Z,14.80
2023-05-15T11:50:16.666Z,15.42
2023-05-15T11:51:26.415Z,15.54
2023-05-15T11:52:24.414Z,15.52
2023-05-15T11:53:21.356Z,15.41
2023-05-15T11:54:18.031Z,15.73
2023-05-15T11:55:15.460Z,15.38
2023-05-15T11:56:25.062Z,15.37
2023-05-15T11:57:21.959Z,15.49
2023-05-15T11:58:19.993Z,15.24
2023-05-15T11:59:16.485Z,15.67
2023-05-15T12:00:13.333Z,16.01
2023-05-15T12:01:10.992Z,16.20
2023-05-15T12:02:07.581Z,15.89
2023-05-15T12:03:04.192Z,16.18
2023-05-15T12:04:01.006Z,15.94
2023-05-15T12:04:57.768Z,15.75
2023-05-15T12:05:59.786Z,15.75
2023-05-15T12:06:56.875Z,15.66
2023-05-15T12:07:53.415Z,15.80
2023-05-15T12:08:53.166Z,16.15
2023-05-15T12:09:52.720Z,16.05
2023-05-15T12:10:49.757Z,16.25
2023-05-15T12:11:53.152Z,16.39
2023-05-15T12:12:49.869Z,16.02
2023-05-15T12:13:51.215Z,15.91
2023-05-15T12:14:47.679Z,15.79
2023-05-15T12:15:47.353Z,16.07
2023-05-15T12:16:43.986Z,16.18
2023-05-15T12:17:41.018Z,15.82
2023-05-15T12:18:38.178Z,15.56
2023-05-15T12:19:35.540Z,15.88
2023-05-15T12:20:33.329Z,16.31
2023-05-15T12:21:30.903Z,16.48
2023-05-15T12:22:27.468Z,15.67
2023-05-15T12:23:24.774Z,15.80
2023-05-15T12:24:21.654Z,16.32
2023-05-15T12:25:18.205Z,16.60
2023-05-15T12:26:14.809Z,16.49
2023-05-15T12:27:12.077Z,16.36
2023-05-15T12:28:08.715Z,16.33
2023-05-15T12:29:05.844Z,16.06
2023-05-15T12:30:03.458Z,16.04
2023-05-15T12:31:00.011Z,16.16
2023-05-15T12:31:56.684Z,16.10
2023-05-15T12:32:53.391Z,15.93
2023-05-15T12:33:49.930Z,16.20